ADDS METAR Data INFO
IDs: Format: Raw Decoded Include TAF

Data at: 0458 UTC 23 May 2017

KDFW 230453Z 14008KT 10SM FEW040 SCT080 BKN200 BKN250 19/17 A2991 RMK AO2 SLP120 OCNL LTGIC DSNT NW CB DSNT NW T01940167
KDFW 230353Z 15010KT 10SM FEW041 BKN200 OVC280 21/17 A2992 RMK AO2 SLP124 OCNL LTGIC DSNT W-NW CB DSNT W-NW T02060167
KDFW 230253Z 13010KT 10SM FEW039 OVC240 22/17 A2991 RMK AO2 SLP122 T02170167 53005
KDFW 230153Z 14011KT 10SM FEW050 OVC260 22/17 A2990 RMK AO2 SLP117 T02220167
KDFW 230053Z 13009KT 10SM FEW035 SCT050 BKN260 23/17 A2989 RMK AO2 SLP116 T02330167
KDFW 222353Z 10006KT 10SM SCT037 SCT065 BKN260 25/16 A2990 RMK AO2 SLP117 T02500161 10278 20244 58014
KDFW 222253Z 12007KT 10SM FEW045 OVC060 25/16 A2991 RMK AO2 SLP121 T02500161
KDFW 222153Z 13007KT 10SM BKN045 OVC050 25/16 A2992 RMK AO2 SLP126 T02500161
KDFW 222053Z 14005KT 10SM FEW041 OVC055 26/16 A2994 RMK AO2 SLP131 T02560156 56029
KDFW 221953Z 10005KT 10SM BKN042 26/16 A2996 RMK AO2 SLP138 T02560156
KDFW 221853Z 11009KT 10SM BKN038 25/15 A2998 RMK AO2 SLP146 T02500150
KDFW 221753Z COR VRB06KT 10SM BKN032 BKN150 24/16 A3002 RMK AO2 SLP160 T02440156 10250 20167 58016
KDFW 221653Z VRB05KT 10SM SCT031 SCT150 24/16 A3005 RMK AO2 SLP168 T02390156
KDFW 221553Z 11009KT 10SM SCT023 SCT150 22/16 A3006 RMK AO2 SLP174 T02170156
KDFW 221453Z 10010KT 10SM FEW020 BKN150 21/16 A3007 RMK AO2 SLP176 T02110156 56001 $
KDFW 221353Z 08006KT 10SM FEW018 BKN140 19/16 A3007 RMK AO2 SLP176 T01940161 $
KDFW 221253Z 12005KT 10SM SCT018 BKN140 18/16 A3007 RMK AO2 SLP175 T01830156 $
KDFW 221153Z 13005KT 10SM FEW025 SCT120 BKN160 17/15 A3007 RMK AO2 SLP177 60019 70026 T01670150 10194 20167 57006 $
KDFW 221053Z 12005KT 10SM FEW100 BKN150 BKN180 17/15 A3008 RMK AO2 RAE0955 SLP178 P0000 T01720150 $
KDFW 220953Z 00000KT 10SM -RA FEW043 SCT100 BKN120 BKN250 18/16 A3009 RMK AO2 SLP181 P0003 T01830161 $
KDFW 220853Z 05003KT 9SM RA OVC100 19/17 A3009 RMK AO2 SLP182 P0005 60016 T01890172 55003 $
KDFW 220753Z 00000KT 10SM -RA OVC110 19/17 A3009 RMK AO2 SLP181 P0003 T01890172 $
KDFW 220653Z 02003KT 10SM -RA FEW070 BKN110 OVC180 18/17 A3010 RMK AO2 SLP185 P0008 T01830167 $
KDFW 220553Z 15004KT 9SM RA FEW075 SCT100 OVC120 19/17 A3010 RMK AO2 RAB0456 SLP187 P0003 60003 T01890167 10256 20189 402780172 50007 $
KDFW 220453Z 19012KT 10SM BKN070 BKN110 OVC180 22/14 A3013 RMK AO2 LTG DSNT SE AND SW SLP194 OCNL LTGIC DSNT SE-SW CB DSNT SE-SW T02220144 $
KDFW 220353Z 13004KT 10SM SCT070 BKN110 OVC180 22/12 A3011 RMK AO2 SLP189 OCNL LTGIC DSNT SE-S CB DSNT SE-S MOV NE T02220122 $
KDFW 220253Z 05006KT 10SM FEW070 BKN140 OVC210 23/12 A3008 RMK AO2 SLP180 OCNL LTGIC DSNT SE-SW CB DSNT SE-SW MOV NE T02280117 53004 $
KDFW 220153Z 08007KT 10SM FEW070 BKN110 OVC210 24/11 A3008 RMK AO2 SLP179 T02440111 $
KDFW 220053Z 07011KT 10SM SCT110 OVC250 24/11 A3004 RMK AO2 SLP167 T02440111 $
KDFW 212353Z 07008KT 10SM SCT100 OVC250 26/11 A3007 RMK AO2 SLP176 T02560106 10278 20244 55004 $
KDFW 212253Z 07014G18KT 10SM FEW100 OVC250 26/08 A3007 RMK AO2 SLP174 T02610078 $
KDFW 212153Z 06007KT 10SM FEW100 OVC250 27/09 A3008 RMK AO2 SLP178 T02720094 $
KDFW 212053Z 08007G17KT 10SM FEW080 FEW120 BKN250 27/10 A3008 RMK AO2 SLP179 T02720100 56020 $
KDFW 211953Z 10008KT 10SM FEW080 SCT120 BKN250 27/09 A3010 RMK AO2 SLP185 T02670094 $
KDFW 211853Z 06007G17KT 10SM FEW100 BKN150 BKN250 27/09 A3011 RMK AO2 SLP188 T02670094 $
KDFW 211753Z 07009KT 10SM FEW050 SCT100 BKN140 BKN250 26/09 A3014 RMK AO2 SLP199 60004 T02560094 10256 20172 50006 $


Page loaded:  04:58 UTC  |   09:58 PM Pacific  |   10:58 PM Mountain  |   11:58 PM Central  |   12:58 AM Eastern

 

ADVISORIES

FORECASTS

FORECASTS

OBSERVATIONS

USER TOOLS

ABOUT US